sensor_id;sensor_type;location;lat;lon;timestamp;pressure;altitude;pressure_sealevel;temperature;humidity
57779;BME280;43608;49.486;9.640;2022-07-29T00:00:17;98529.34;;;18.61;53.24
57779;BME280;43608;49.486;9.640;2022-07-29T00:00:48;98532.97;;;18.60;53.54
57779;BME280;43608;49.486;9.640;2022-07-29T00:01:18;98536.59;;;18.59;53.58
57779;BME280;43608;49.486;9.640;2022-07-29T00:01:49;98515.56;;;18.48;53.71
57779;BME280;43608;49.486;9.640;2022-07-29T00:02:19;98526.84;;;18.56;53.75
57779;BME280;43608;49.486;9.640;2022-07-29T00:02:50;98534.00;;;18.56;53.83
57779;BME280;43608;49.486;9.640;2022-07-29T00:03:20;98529.63;;;18.53;54.12
57779;BME280;43608;49.486;9.640;2022-07-29T00:03:51;98531.53;;;18.51;54.25
57779;BME280;43608;49.486;9.640;2022-07-29T00:04:21;98524.31;;;18.52;54.05
57779;BME280;43608;49.486;9.640;2022-07-29T00:04:51;98525.25;;;18.50;53.97
57779;BME280;43608;49.486;9.640;2022-07-29T00:05:22;98521.84;;;18.47;54.21
57779;BME280;43608;49.486;9.640;2022-07-29T00:05:52;98525.38;;;18.47;54.04
57779;BME280;43608;49.486;9.640;2022-07-29T00:06:23;98528.06;;;18.47;54.13
57779;BME280;43608;49.486;9.640;2022-07-29T00:06:53;98530.81;;;18.46;54.27
57779;BME280;43608;49.486;9.640;2022-07-29T00:07:24;98529.06;;;18.45;54.16
57779;BME280;43608;49.486;9.640;2022-07-29T00:07:54;98524.75;;;18.41;54.33
57779;BME280;43608;49.486;9.640;2022-07-29T00:08:25;98525.63;;;18.41;54.43
57779;BME280;43608;49.486;9.640;2022-07-29T00:08:55;98523.94;;;18.39;54.47
57779;BME280;43608;49.486;9.640;2022-07-29T00:09:25;98524.88;;;18.38;54.41
57779;BME280;43608;49.486;9.640;2022-07-29T00:09:56;98523.19;;;18.35;54.59
57779;BME280;43608;49.486;9.640;2022-07-29T00:10:26;98526.81;;;18.34;54.62
57779;BME280;43608;49.486;9.640;2022-07-29T00:10:56;98528.66;;;18.32;54.46
57779;BME280;43608;49.486;9.640;2022-07-29T00:11:27;98525.22;;;18.28;54.67
57779;BME280;43608;49.486;9.640;2022-07-29T00:11:59;98508.63;;;18.19;54.68
57779;BME280;43608;49.486;9.640;2022-07-29T00:12:30;98528.03;;;18.25;54.72
57779;BME280;43608;49.486;9.640;2022-07-29T00:13:01;98522.72;;;18.24;54.83
57779;BME280;43608;49.486;9.640;2022-07-29T00:13:31;98521.91;;;18.22;54.87
57779;BME280;43608;49.486;9.640;2022-07-29T00:14:02;98523.72;;;18.21;54.88
57779;BME280;43608;49.486;9.640;2022-07-29T00:14:32;98528.25;;;18.19;54.88
57779;BME280;43608;49.486;9.640;2022-07-29T00:15:03;98518.59;;;18.15;55.03
57779;BME280;43608;49.486;9.640;2022-07-29T00:15:34;98524.00;;;18.13;55.10
57779;BME280;43608;49.486;9.640;2022-07-29T00:16:04;98520.41;;;18.14;55.26
57779;BME280;43608;49.486;9.640;2022-07-29T00:16:35;98518.66;;;18.13;55.03
57779;BME280;43608;49.486;9.640;2022-07-29T00:17:05;98520.69;;;18.07;55.35
57779;BME280;43608;49.486;9.640;2022-07-29T00:17:36;98524.13;;;18.10;55.40
57779;BME280;43608;49.486;9.640;2022-07-29T00:18:06;98525.91;;;18.10;55.46
57779;BME280;43608;49.486;9.640;2022-07-29T00:18:37;98528.66;;;18.08;55.62
57779;BME280;43608;49.486;9.640;2022-07-29T00:19:07;98519.75;;;18.08;55.48
57779;BME280;43608;49.486;9.640;2022-07-29T00:19:37;98513.72;;;18.01;55.83
57779;BME280;43608;49.486;9.640;2022-07-29T00:20:09;98522.47;;;18.06;55.64
57779;BME280;43608;49.486;9.640;2022-07-29T00:20:39;98517.25;;;18.03;55.68
57779;BME280;43608;49.486;9.640;2022-07-29T00:21:09;98530.59;;;18.05;55.60
57779;BME280;43608;49.486;9.640;2022-07-29T00:21:40;98527.97;;;18.03;55.71
57779;BME280;43608;49.486;9.640;2022-07-29T00:22:10;98519.91;;;18.03;55.83
57779;BME280;43608;49.486;9.640;2022-07-29T00:22:41;98495.47;;;17.87;55.72
57779;BME280;43608;49.486;9.640;2022-07-29T00:23:11;98513.84;;;17.98;55.78
57779;BME280;43608;49.486;9.640;2022-07-29T00:23:41;98526.22;;;18.02;55.84
57779;BME280;43608;49.486;9.640;2022-07-29T00:24:12;98509.59;;;17.91;55.71
57779;BME280;43608;49.486;9.640;2022-07-29T00:24:42;98523.66;;;17.99;55.78
57779;BME280;43608;49.486;9.640;2022-07-29T00:25:12;98519.16;;;17.99;55.83
57779;BME280;43608;49.486;9.640;2022-07-29T00:25:43;98526.34;;;17.99;55.95
57779;BME280;43608;49.486;9.640;2022-07-29T00:26:13;98523.72;;;17.97;55.84
57779;BME280;43608;49.486;9.640;2022-07-29T00:26:44;98522.88;;;17.95;56.07
57779;BME280;43608;49.486;9.640;2022-07-29T00:27:14;98521.19;;;17.93;56.00
57779;BME280;43608;49.486;9.640;2022-07-29T00:27:44;98518.50;;;17.93;56.06
57779;BME280;43608;49.486;9.640;2022-07-29T00:28:16;98522.16;;;17.90;55.98
57779;BME280;43608;49.486;9.640;2022-07-29T00:28:46;98521.28;;;17.90;56.17
57779;BME280;43608;49.486;9.640;2022-07-29T00:29:16;98524.03;;;17.88;56.21
57779;BME280;43608;49.486;9.640;2022-07-29T00:29:47;98529.41;;;17.87;56.36
57779;BME280;43608;49.486;9.640;2022-07-29T00:30:17;98498.75;;;17.70;56.60
57779;BME280;43608;49.486;9.640;2022-07-29T00:30:48;98519.03;;;17.77;56.47
57779;BME280;43608;49.486;9.640;2022-07-29T00:31:18;98521.63;;;17.80;56.45
57779;BME280;43608;49.486;9.640;2022-07-29T00:31:49;98505.81;;;17.73;56.62
57779;BME280;43608;49.486;9.640;2022-07-29T00:32:19;98517.47;;;17.72;56.56
57779;BME280;43608;49.486;9.640;2022-07-29T00:32:50;98521.78;;;17.76;56.66
57779;BME280;43608;49.486;9.640;2022-07-29T00:33:20;98525.38;;;17.75;56.81
57779;BME280;43608;49.486;9.640;2022-07-29T00:33:52;98512.19;;;17.68;56.90
57779;BME280;43608;49.486;9.640;2022-07-29T00:34:22;98522.88;;;17.70;56.94
57779;BME280;43608;49.486;9.640;2022-07-29T00:35:11;98481.81;;;17.44;57.04
57779;BME280;43608;49.486;9.640;2022-07-29T00:36:00;98509.97;;;17.56;56.92
57779;BME280;43608;49.486;9.640;2022-07-29T00:36:30;98527.47;;;17.66;57.00
57779;BME280;43608;49.486;9.640;2022-07-29T00:37:01;98523.91;;;17.66;56.91
57779;BME280;43608;49.486;9.640;2022-07-29T00:37:31;98528.44;;;17.64;57.05
57779;BME280;43608;49.486;9.640;2022-07-29T00:38:02;98521.41;;;17.61;56.99
57779;BME280;43608;49.486;9.640;2022-07-29T00:38:32;98465.50;;;17.25;56.92
57779;BME280;43608;49.486;9.640;2022-07-29T00:39:03;98526.88;;;17.58;57.11
57779;BME280;43608;49.486;9.640;2022-07-29T00:39:33;98520.75;;;17.55;57.18
57779;BME280;43608;49.486;9.640;2022-07-29T00:40:04;98505.84;;;17.46;57.25
57779;BME280;43608;49.486;9.640;2022-07-29T00:40:35;98519.81;;;17.56;57.23
57779;BME280;43608;49.486;9.640;2022-07-29T00:41:05;98514.56;;;17.53;57.32
57779;BME280;43608;49.486;9.640;2022-07-29T00:41:36;98519.00;;;17.54;57.31
57779;BME280;43608;49.486;9.640;2022-07-29T00:42:06;98508.59;;;17.44;57.04
57779;BME280;43608;49.486;9.640;2022-07-29T00:42:45;98514.56;;;17.53;57.20
57779;BME280;43608;49.486;9.640;2022-07-29T00:43:17;98516.38;;;17.52;57.19
57779;BME280;43608;49.486;9.640;2022-07-29T00:43:48;98504.94;;;17.47;57.17
57779;BME280;43608;49.486;9.640;2022-07-29T00:44:19;98511.28;;;17.44;57.07
57779;BME280;43608;49.486;9.640;2022-07-29T00:44:49;98488.34;;;17.36;57.10
57779;BME280;43608;49.486;9.640;2022-07-29T00:45:20;98520.09;;;17.48;57.23
57779;BME280;43608;49.486;9.640;2022-07-29T00:45:51;98518.28;;;17.48;57.22
57779;BME280;43608;49.486;9.640;2022-07-29T00:46:22;98512.09;;;17.46;57.27
57779;BME280;43608;49.486;9.640;2022-07-29T00:46:52;98506.72;;;17.46;57.23
57779;BME280;43608;49.486;9.640;2022-07-29T00:47:23;98518.41;;;17.45;57.27
57779;BME280;43608;49.486;9.640;2022-07-29T00:47:53;98517.44;;;17.46;57.23
57779;BME280;43608;49.486;9.640;2022-07-29T00:48:23;98497.16;;;17.39;57.16
57779;BME280;43608;49.486;9.640;2022-07-29T00:48:54;98514.75;;;17.46;57.23
57779;BME280;43608;49.486;9.640;2022-07-29T00:49:24;98518.41;;;17.45;57.27
57779;BME280;43608;49.486;9.640;2022-07-29T00:49:55;98506.06;;;17.40;57.04
57779;BME280;43608;49.486;9.640;2022-07-29T00:50:25;98495.53;;;17.35;57.20
57779;BME280;43608;49.486;9.640;2022-07-29T00:50:58;98518.41;;;17.44;56.92
57779;BME280;43608;49.486;9.640;2022-07-29T00:51:30;98521.09;;;17.44;57.04
57779;BME280;43608;49.486;9.640;2022-07-29T00:52:02;98522.97;;;17.42;57.12
57779;BME280;43608;49.486;9.640;2022-07-29T00:52:34;98515.91;;;17.39;57.08
57779;BME280;43608;49.486;9.640;2022-07-29T00:53:07;98523.91;;;17.41;56.99
57779;BME280;43608;49.486;9.640;2022-07-29T00:53:37;98494.91;;;17.27;57.25
57779;BME280;43608;49.486;9.640;2022-07-29T00:54:08;98520.38;;;17.39;57.28
57779;BME280;43608;49.486;9.640;2022-07-29T00:54:39;98516.84;;;17.38;57.29
57779;BME280;43608;49.486;9.640;2022-07-29T00:55:12;98519.59;;;17.37;57.52
57779;BME280;43608;49.486;9.640;2022-07-29T00:55:42;98516.06;;;17.34;57.40
57779;BME280;43608;49.486;9.640;2022-07-29T00:56:13;98516.97;;;17.35;57.56
57779;BME280;43608;49.486;9.640;2022-07-29T00:56:44;98485.44;;;17.16;57.52
57779;BME280;43608;49.486;9.640;2022-07-29T00:57:14;98515.22;;;17.34;57.62
57779;BME280;43608;49.486;9.640;2022-07-29T00:57:46;98513.50;;;17.31;57.63
57779;BME280;43608;49.486;9.640;2022-07-29T00:58:16;98510.88;;;17.30;57.65
57779;BME280;43608;49.486;9.640;2022-07-29T00:58:48;98507.50;;;17.25;57.81
57779;BME280;43608;49.486;9.640;2022-07-29T00:59:20;98495.13;;;17.21;57.77
57779;BME280;43608;49.486;9.640;2022-07-29T00:59:51;98515.47;;;17.26;57.77
57779;BME280;43608;49.486;9.640;2022-07-29T01:00:24;98512.00;;;17.23;57.98
57779;BME280;43608;49.486;9.640;2022-07-29T01:00:54;98511.16;;;17.22;57.97
57779;BME280;43608;49.486;9.640;2022-07-29T01:01:25;98510.31;;;17.20;58.09
57779;BME280;43608;49.486;9.640;2022-07-29T01:01:56;98512.06;;;17.21;58.06
57779;BME280;43608;49.486;9.640;2022-07-29T01:02:26;98484.06;;;17.05;58.17
57779;BME280;43608;49.486;9.640;2022-07-29T01:02:57;98509.44;;;17.20;58.22
57779;BME280;43608;49.486;9.640;2022-07-29T01:03:27;98506.78;;;17.20;58.16
57779;BME280;43608;49.486;9.640;2022-07-29T01:03:57;98508.63;;;17.17;58.18
57779;BME280;43608;49.486;9.640;2022-07-29T01:04:28;98494.69;;;17.08;58.18
57779;BME280;43608;49.486;9.640;2022-07-29T01:05:01;98507.81;;;17.15;58.30
57779;BME280;43608;49.486;9.640;2022-07-29T01:05:31;98506.13;;;17.11;58.20
57779;BME280;43608;49.486;9.640;2022-07-29T01:06:02;98503.44;;;17.13;58.39
57779;BME280;43608;49.486;9.640;2022-07-29T01:06:34;98504.44;;;17.09;58.28
57779;BME280;43608;49.486;9.640;2022-07-29T01:07:05;98499.91;;;17.11;58.34
57779;BME280;43608;49.486;9.640;2022-07-29T01:07:37;98497.28;;;17.09;58.43
57779;BME280;43608;49.486;9.640;2022-07-29T01:08:08;98494.81;;;17.03;58.40
57779;BME280;43608;49.486;9.640;2022-07-29T01:08:38;98500.03;;;17.08;58.43
57779;BME280;43608;49.486;9.640;2022-07-29T01:09:10;98496.53;;;17.06;58.54
57779;BME280;43608;49.486;9.640;2022-07-29T01:09:42;98501.00;;;17.05;58.53
57779;BME280;43608;49.486;9.640;2022-07-29T01:10:14;98482.59;;;16.96;58.65
57779;BME280;43608;49.486;9.640;2022-07-29T01:10:46;98496.63;;;17.03;58.63
57779;BME280;43608;49.486;9.640;2022-07-29T01:11:17;98497.56;;;17.01;58.70
57779;BME280;43608;49.486;9.640;2022-07-29T01:11:48;98500.28;;;17.00;58.69
57779;BME280;43608;49.486;9.640;2022-07-29T01:12:23;98501.22;;;16.99;58.75
57779;BME280;43608;49.486;9.640;2022-07-29T01:12:57;98496.84;;;16.96;58.67
57779;BME280;43608;49.486;9.640;2022-07-29T01:13:30;98501.34;;;16.94;58.72
57779;BME280;43608;49.486;9.640;2022-07-29T01:14:01;98496.06;;;16.93;58.77
57779;BME280;43608;49.486;9.640;2022-07-29T01:14:32;98494.28;;;16.93;58.64
57779;BME280;43608;49.486;9.640;2022-07-29T01:15:04;98486.47;;;16.84;58.91
57779;BME280;43608;49.486;9.640;2022-07-29T01:15:47;98481.25;;;16.81;58.88
57779;BME280;43608;49.486;9.640;2022-07-29T01:16:25;98510.44;;;16.89;59.06
57779;BME280;43608;49.486;9.640;2022-07-29T01:17:01;98498.03;;;16.86;58.97
57779;BME280;43608;49.486;9.640;2022-07-29T01:17:46;98497.16;;;16.85;59.11
57779;BME280;43608;49.486;9.640;2022-07-29T01:18:56;98499.13;;;16.80;59.13
57779;BME280;43608;49.486;9.640;2022-07-29T01:19:58;98500.94;;;16.78;59.16
57779;BME280;43608;49.486;9.640;2022-07-29T01:21:57;98470.41;;;16.57;59.54
57779;BME280;43608;49.486;9.640;2022-07-29T01:25:53;98496.09;;;16.63;59.72
57779;BME280;43608;49.486;9.640;2022-07-29T01:27:41;98497.16;;;16.57;59.95
57779;BME280;43608;49.486;9.640;2022-07-29T01:29:07;98502.59;;;16.54;59.99
57779;BME280;43608;49.486;9.640;2022-07-29T01:29:55;98481.53;;;16.43;60.05
57779;BME280;43608;49.486;9.640;2022-07-29T01:30:27;98481.72;;;16.39;60.22
57779;BME280;43608;49.486;9.640;2022-07-29T01:31:00;98502.75;;;16.49;60.21
57779;BME280;43608;49.486;9.640;2022-07-29T01:32:14;98488.72;;;16.43;60.32
57779;BME280;43608;49.486;9.640;2022-07-29T01:32:50;98494.81;;;16.46;60.60
57779;BME280;43608;49.486;9.640;2022-07-29T01:33:25;98501.13;;;16.45;60.48
57779;BME280;43608;49.486;9.640;2022-07-29T01:34:23;98498.47;;;16.44;60.40
57779;BME280;43608;49.486;9.640;2022-07-29T01:35:39;98496.78;;;16.41;60.44
57779;BME280;43608;49.486;9.640;2022-07-29T01:36:14;98498.56;;;16.41;60.66
57779;BME280;43608;49.486;9.640;2022-07-29T01:37:02;98494.13;;;16.40;60.63
57779;BME280;43608;49.486;9.640;2022-07-29T01:37:43;98500.44;;;16.37;60.66
57779;BME280;43608;49.486;9.640;2022-07-29T01:38:21;98463.53;;;16.20;60.69
57779;BME280;43608;49.486;9.640;2022-07-29T01:39:18;98497.88;;;16.34;60.62
57779;BME280;43608;49.486;9.640;2022-07-29T01:39:51;98496.13;;;16.33;60.76
57779;BME280;43608;49.486;9.640;2022-07-29T01:40:43;98499.72;;;16.32;60.87
57779;BME280;43608;49.486;9.640;2022-07-29T01:41:16;98428.00;;;15.86;60.96
57779;BME280;43608;49.486;9.640;2022-07-29T01:43:00;98477.06;;;16.15;61.08
57779;BME280;43608;49.486;9.640;2022-07-29T01:43:42;98498.13;;;16.26;61.13
57779;BME280;43608;49.486;9.640;2022-07-29T01:44:22;98493.75;;;16.24;61.14
57779;BME280;43608;49.486;9.640;2022-07-29T01:45:10;98491.97;;;16.23;61.12
57779;BME280;43608;49.486;9.640;2022-07-29T01:46:06;98505.41;;;16.21;61.15
57779;BME280;43608;49.486;9.640;2022-07-29T01:46:41;98497.47;;;16.18;61.26
57779;BME280;43608;49.486;9.640;2022-07-29T01:47:19;98491.19;;;16.19;61.01
57779;BME280;43608;49.486;9.640;2022-07-29T01:47:58;98494.81;;;16.18;61.29
57779;BME280;43608;49.486;9.640;2022-07-29T01:49:28;98489.47;;;16.16;61.33
57779;BME280;43608;49.486;9.640;2022-07-29T01:50:00;98494.88;;;16.15;61.26
57779;BME280;43608;49.486;9.640;2022-07-29T01:50:40;98493.97;;;16.16;61.24
57779;BME280;43608;49.486;9.640;2022-07-29T01:51:19;98500.22;;;16.15;61.33
57779;BME280;43608;49.486;9.640;2022-07-29T01:51:54;98494.94;;;16.13;61.43
57779;BME280;43608;49.486;9.640;2022-07-29T01:53:11;98494.06;;;16.13;61.37
57779;BME280;43608;49.486;9.640;2022-07-29T01:53:30;98465.19;;;15.94;61.39
57779;BME280;43608;49.486;9.640;2022-07-29T01:54:16;98499.47;;;16.11;61.66
57779;BME280;43608;49.486;9.640;2022-07-29T01:54:53;98495.97;;;16.09;61.51
57779;BME280;43608;49.486;9.640;2022-07-29T01:55:31;98486.34;;;16.02;61.50
57779;BME280;43608;49.486;9.640;2022-07-29T01:56:04;98495.09;;;16.07;61.69
57779;BME280;43608;49.486;9.640;2022-07-29T01:56:39;98502.28;;;16.07;61.75
57779;BME280;43608;49.486;9.640;2022-07-29T01:57:13;98500.50;;;16.06;61.57
57779;BME280;43608;49.486;9.640;2022-07-29T01:57:46;98478.72;;;15.90;61.77
57779;BME280;43608;49.486;9.640;2022-07-29T01:58:18;98497.84;;;16.06;61.68
57779;BME280;43608;49.486;9.640;2022-07-29T01:58:49;98497.03;;;16.02;61.79
57779;BME280;43608;49.486;9.640;2022-07-29T01:59:23;98499.69;;;16.04;61.83
57779;BME280;43608;49.486;9.640;2022-07-29T01:59:56;98496.19;;;16.01;61.87
57779;BME280;43608;49.486;9.640;2022-07-29T02:00:27;98496.13;;;16.03;62.02
57779;BME280;43608;49.486;9.640;2022-07-29T02:01:00;98500.63;;;16.02;61.78
57779;BME280;43608;49.486;9.640;2022-07-29T02:01:33;98502.44;;;16.00;61.88
57779;BME280;43608;49.486;9.640;2022-07-29T02:02:06;98497.09;;;16.00;61.51
57779;BME280;43608;49.486;9.640;2022-07-29T02:02:41;98492.72;;;15.98;61.84
57779;BME280;43608;49.486;9.640;2022-07-29T02:03:14;98499.88;;;15.97;61.92
57779;BME280;43608;49.486;9.640;2022-07-29T02:03:50;98503.50;;;15.95;62.05
57779;BME280;43608;49.486;9.640;2022-07-29T02:04:23;98487.75;;;15.85;62.20
57779;BME280;43608;49.486;9.640;2022-07-29T02:04:55;98513.31;;;15.94;62.03
57779;BME280;43608;49.486;9.640;2022-07-29T02:05:27;98502.72;;;15.91;62.12
57779;BME280;43608;49.486;9.640;2022-07-29T02:06:01;98507.19;;;15.91;62.12
57779;BME280;43608;49.486;9.640;2022-07-29T02:06:34;98503.69;;;15.89;62.22
57779;BME280;43608;49.486;9.640;2022-07-29T02:07:10;98507.25;;;15.88;62.26
57779;BME280;43608;49.486;9.640;2022-07-29T02:07:42;98503.78;;;15.85;62.41
57779;BME280;43608;49.486;9.640;2022-07-29T02:08:14;98503.78;;;15.85;62.39
57779;BME280;43608;49.486;9.640;2022-07-29T02:08:47;98506.50;;;15.84;62.58
57779;BME280;43608;49.486;9.640;2022-07-29T02:09:19;98501.16;;;15.82;62.44
57779;BME280;43608;49.486;9.640;2022-07-29T02:09:51;98505.66;;;15.82;62.46
57779;BME280;43608;49.486;9.640;2022-07-29T02:10:26;98503.91;;;15.81;62.45
57779;BME280;43608;49.486;9.640;2022-07-29T02:10:58;98502.09;;;15.80;62.54
57779;BME280;43608;49.486;9.640;2022-07-29T02:11:31;98504.00;;;15.76;62.60
57779;BME280;43608;49.486;9.640;2022-07-29T02:12:03;98497.81;;;15.74;62.68
57779;BME280;43608;49.486;9.640;2022-07-29T02:12:38;98505.84;;;15.74;62.59
57779;BME280;43608;49.486;9.640;2022-07-29T02:13:11;98491.81;;;15.66;62.55
57779;BME280;43608;49.486;9.640;2022-07-29T02:13:43;98504.97;;;15.72;62.67
57779;BME280;43608;49.486;9.640;2022-07-29T02:14:16;98495.25;;;15.71;62.75
57779;BME280;43608;49.486;9.640;2022-07-29T02:14:51;98497.06;;;15.69;62.79
57779;BME280;43608;49.486;9.640;2022-07-29T02:15:24;98499.78;;;15.67;62.95
57779;BME280;43608;49.486;9.640;2022-07-29T02:15:57;98497.16;;;15.66;63.19
57779;BME280;43608;49.486;9.640;2022-07-29T02:16:30;98476.13;;;15.53;63.01
57779;BME280;43608;49.486;9.640;2022-07-29T02:17:02;98481.47;;;15.53;62.92
57779;BME280;43608;49.486;9.640;2022-07-29T02:17:38;98497.22;;;15.63;62.91
57779;BME280;43608;49.486;9.640;2022-07-29T02:18:20;98473.59;;;15.49;62.83
57779;BME280;43608;49.486;9.640;2022-07-29T02:18:53;98486.00;;;15.51;62.92
57779;BME280;43608;49.486;9.640;2022-07-29T02:19:26;98478.16;;;15.45;63.00
57779;BME280;43608;49.486;9.640;2022-07-29T02:20:00;98500.00;;;15.60;63.06
57779;BME280;43608;49.486;9.640;2022-07-29T02:20:32;98502.69;;;15.60;63.13
57779;BME280;43608;49.486;9.640;2022-07-29T02:21:04;98483.44;;;15.47;63.19
57779;BME280;43608;49.486;9.640;2022-07-29T02:21:35;98504.50;;;15.58;63.15
57779;BME280;43608;49.486;9.640;2022-07-29T02:22:06;98481.69;;;15.46;63.21
57779;BME280;43608;49.486;9.640;2022-07-29T02:22:39;98503.63;;;15.57;63.33
57779;BME280;43608;49.486;9.640;2022-07-29T02:23:10;98496.69;;;15.51;63.30
57779;BME280;43608;49.486;9.640;2022-07-29T02:23:43;98504.59;;;15.55;63.50
57779;BME280;43608;49.486;9.640;2022-07-29T02:24:15;98481.78;;;15.43;63.39
57779;BME280;43608;49.486;9.640;2022-07-29T02:24:49;98503.69;;;15.56;63.33
57779;BME280;43608;49.486;9.640;2022-07-29T02:25:22;98496.63;;;15.53;63.49
57779;BME280;43608;49.486;9.640;2022-07-29T02:25:56;98504.59;;;15.55;63.55
57779;BME280;43608;49.486;9.640;2022-07-29T02:26:27;98502.84;;;15.53;63.49
57779;BME280;43608;49.486;9.640;2022-07-29T02:26:59;98507.25;;;15.55;63.55
57779;BME280;43608;49.486;9.640;2022-07-29T02:27:33;98502.84;;;15.53;63.46
57779;BME280;43608;49.486;9.640;2022-07-29T02:28:06;98506.34;;;15.56;63.54
57779;BME280;43608;49.486;9.640;2022-07-29T02:28:39;98484.44;;;15.43;63.64
57779;BME280;43608;49.486;9.640;2022-07-29T02:29:12;98500.16;;;15.53;63.85
57779;BME280;43608;49.486;9.640;2022-07-29T02:29:45;98500.16;;;15.53;63.58
57779;BME280;43608;49.486;9.640;2022-07-29T02:30:17;98480.13;;;15.37;63.46
57779;BME280;43608;49.486;9.640;2022-07-29T02:30:48;98501.06;;;15.52;63.50
57779;BME280;43608;49.486;9.640;2022-07-29T02:31:23;98501.06;;;15.52;63.48
57779;BME280;43608;49.486;9.640;2022-07-29T02:31:54;98502.88;;;15.52;63.51
57779;BME280;43608;49.486;9.640;2022-07-29T02:32:27;98502.03;;;15.50;63.69
57779;BME280;43608;49.486;9.640;2022-07-29T02:33:00;98504.69;;;15.51;63.54
57779;BME280;43608;49.486;9.640;2022-07-29T02:33:31;98499.38;;;15.50;63.48
57779;BME280;43608;49.486;9.640;2022-07-29T02:34:05;98502.03;;;15.50;63.67
57779;BME280;43608;49.486;9.640;2022-07-29T02:34:38;98491.59;;;15.41;63.61
57779;BME280;43608;49.486;9.640;2022-07-29T02:35:09;98489.78;;;15.43;63.73
57779;BME280;43608;49.486;9.640;2022-07-29T02:35:41;98494.97;;;15.49;63.74
57779;BME280;43608;49.486;9.640;2022-07-29T02:36:13;98496.75;;;15.48;63.66
57779;BME280;43608;49.486;9.640;2022-07-29T02:36:45;98498.50;;;15.49;63.52
57779;BME280;43608;49.486;9.640;2022-07-29T02:37:16;98493.25;;;15.46;63.71
57779;BME280;43608;49.486;9.640;2022-07-29T02:37:49;98502.09;;;15.48;63.65
57779;BME280;43608;49.486;9.640;2022-07-29T02:38:41;98496.75;;;15.48;63.75
57779;BME280;43608;49.486;9.640;2022-07-29T02:39:22;98470.59;;;15.28;63.38
57779;BME280;43608;49.486;9.640;2022-07-29T02:39:55;98481.06;;;15.36;63.49
57779;BME280;43608;49.486;9.640;2022-07-29T02:40:26;98503.00;;;15.47;63.60
57779;BME280;43608;49.486;9.640;2022-07-29T02:40:58;98502.13;;;15.47;63.57
57779;BME280;43608;49.486;9.640;2022-07-29T02:41:35;98499.50;;;15.45;63.62
57779;BME280;43608;49.486;9.640;2022-07-29T02:42:10;98490.59;;;15.45;63.73
57779;BME280;43608;49.486;9.640;2022-07-29T02:42:43;98498.63;;;15.45;63.76
57779;BME280;43608;49.486;9.640;2022-07-29T02:43:14;98498.63;;;15.45;63.70
57779;BME280;43608;49.486;9.640;2022-07-29T02:43:47;98483.66;;;15.39;63.91
57779;BME280;43608;49.486;9.640;2022-07-29T02:44:21;98481.03;;;15.38;63.65
57779;BME280;43608;49.486;9.640;2022-07-29T02:44:54;98495.94;;;15.45;63.69
57779;BME280;43608;49.486;9.640;2022-07-29T02:45:25;98495.94;;;15.45;63.64
57779;BME280;43608;49.486;9.640;2022-07-29T02:45:56;98465.31;;;15.25;63.71
57779;BME280;43608;49.486;9.640;2022-07-29T02:46:33;98495.13;;;15.43;63.66
57779;BME280;43608;49.486;9.640;2022-07-29T02:47:41;98494.22;;;15.42;63.74
57779;BME280;43608;49.486;9.640;2022-07-29T02:48:15;98493.31;;;15.43;63.77
57779;BME280;43608;49.486;9.640;2022-07-29T02:50:35;98490.75;;;15.40;63.69
57779;BME280;43608;49.486;9.640;2022-07-29T02:51:12;98416.22;;;14.98;63.60
57779;BME280;43608;49.486;9.640;2022-07-29T02:51:56;98497.00;;;15.39;63.64
57779;BME280;43608;49.486;9.640;2022-07-29T02:53:16;98497.00;;;15.39;63.66
57779;BME280;43608;49.486;9.640;2022-07-29T02:53:51;98502.34;;;15.39;63.64
57779;BME280;43608;49.486;9.640;2022-07-29T02:55:07;98495.22;;;15.38;63.70
57779;BME280;43608;49.486;9.640;2022-07-29T02:55:43;98492.56;;;15.38;63.77
57779;BME280;43608;49.486;9.640;2022-07-29T02:56:18;98498.81;;;15.37;63.76
57779;BME280;43608;49.486;9.640;2022-07-29T02:56:51;98468.19;;;15.17;63.57
57779;BME280;43608;49.486;9.640;2022-07-29T02:57:43;98498.81;;;15.37;63.93
57779;BME280;43608;49.486;9.640;2022-07-29T02:58:38;98499.75;;;15.36;63.66
57779;BME280;43608;49.486;9.640;2022-07-29T02:59:10;98499.72;;;15.38;63.71
57779;BME280;43608;49.486;9.640;2022-07-29T02:59:43;98500.63;;;15.36;63.77
57779;BME280;43608;49.486;9.640;2022-07-29T03:00:15;98497.94;;;15.36;63.92
57779;BME280;43608;49.486;9.640;2022-07-29T03:00:48;98487.47;;;15.29;63.80
57779;BME280;43608;49.486;9.640;2022-07-29T03:01:22;98490.84;;;15.35;63.79
57779;BME280;43608;49.486;9.640;2022-07-29T03:01:55;98495.34;;;15.35;63.92
57779;BME280;43608;49.486;9.640;2022-07-29T03:02:26;98483.03;;;15.28;64.08
57779;BME280;43608;49.486;9.640;2022-07-29T03:03:03;98472.56;;;15.22;63.97
57779;BME280;43608;49.486;9.640;2022-07-29T03:03:36;98491.06;;;15.28;63.85
57779;BME280;43608;49.486;9.640;2022-07-29T03:04:08;98494.41;;;15.36;64.02
57779;BME280;43608;49.486;9.640;2022-07-29T03:04:41;98495.34;;;15.35;64.20
57779;BME280;43608;49.486;9.640;2022-07-29T03:05:16;98494.44;;;15.34;64.11
57779;BME280;43608;49.486;9.640;2022-07-29T03:05:47;98498.88;;;15.35;64.31
57779;BME280;43608;49.486;9.640;2022-07-29T03:06:19;98479.56;;;15.26;63.94
57779;BME280;43608;49.486;9.640;2022-07-29T03:06:51;98491.00;;;15.29;64.13
57779;BME280;43608;49.486;9.640;2022-07-29T03:07:22;98492.72;;;15.32;64.11
57779;BME280;43608;49.486;9.640;2022-07-29T03:07:56;98488.22;;;15.34;64.14
57779;BME280;43608;49.486;9.640;2022-07-29T03:08:27;98493.56;;;15.34;64.10
57779;BME280;43608;49.486;9.640;2022-07-29T03:08:59;98487.44;;;15.30;64.14
57779;BME280;43608;49.486;9.640;2022-07-29T03:09:30;98493.56;;;15.34;64.15
57779;BME280;43608;49.486;9.640;2022-07-29T03:10:02;98495.38;;;15.33;64.12
57779;BME280;43608;49.486;9.640;2022-07-29T03:10:33;98490.91;;;15.34;64.08
57779;BME280;43608;49.486;9.640;2022-07-29T03:11:04;98492.66;;;15.35;64.09
57779;BME280;43608;49.486;9.640;2022-07-29T03:11:35;98498.91;;;15.34;64.12